Terminal Aerodrome Forecast
Issued by NWS Knoxville/Tri Cities, TN

Home | Current Version | Previous Version | Text Only | Print | Product List | Glossary On
Versions: 1 2 3 4 5 6 7 8 9 10 11 12 13 14 15 16 17 18 19 20 21 22 23 24 25 26 27 28 29 30 31 32 33 34 35 36 37 38 39 40 41 42
000
FTUS44 KMRX 250535
TAFTRI
TAF
KTRI 250535Z 2506/2606 24006KT P6SM SCT020 BKN035
     FM250900 26005KT 5SM BR BKN025
     FM251600 25014G19KT 4SM -RA BR BKN035 BKN080
     FM252000 25014G21KT 3SM -RA BR BKN020 OVC050
     FM260000 25017KT P6SM VCSH SCT015 OVC035
     FM260300 27009KT P6SM OVC035=

USA.gov is the U.S. government's official web portal to all federal, state and local government web resources and services.